sensor_id;sensor_type;location;lat;lon;timestamp;P1;durP1;ratioP1;P2;durP2;ratioP2
4700;SDS011;8724;51.272;6.554;2022-07-03T00:02:18;1.73;;;1.57;;
4700;SDS011;8724;51.272;6.554;2022-07-03T00:04:46;2.80;;;1.90;;
4700;SDS011;8724;51.272;6.554;2022-07-03T00:07:14;2.90;;;1.90;;
4700;SDS011;8724;51.272;6.554;2022-07-03T00:09:43;2.47;;;1.70;;
4700;SDS011;8724;51.272;6.554;2022-07-03T00:12:12;1.90;;;1.73;;
4700;SDS011;8724;51.272;6.554;2022-07-03T00:14:42;1.87;;;1.67;;
4700;SDS011;8724;51.272;6.554;2022-07-03T00:17:11;1.33;;;1.23;;
4700;SDS011;8724;51.272;6.554;2022-07-03T00:19:40;6.27;;;2.17;;
4700;SDS011;8724;51.272;6.554;2022-07-03T00:22:10;1.70;;;1.43;;
4700;SDS011;8724;51.272;6.554;2022-07-03T00:24:42;2.00;;;1.80;;
4700;SDS011;8724;51.272;6.554;2022-07-03T00:27:12;2.97;;;1.20;;
4700;SDS011;8724;51.272;6.554;2022-07-03T00:29:44;3.03;;;1.80;;
4700;SDS011;8724;51.272;6.554;2022-07-03T00:32:13;1.70;;;1.60;;
4700;SDS011;8724;51.272;6.554;2022-07-03T00:34:46;2.50;;;2.17;;
4700;SDS011;8724;51.272;6.554;2022-07-03T00:37:17;1.83;;;1.70;;
4700;SDS011;8724;51.272;6.554;2022-07-03T00:39:45;4.47;;;2.10;;
4700;SDS011;8724;51.272;6.554;2022-07-03T00:42:14;3.03;;;2.60;;
4700;SDS011;8724;51.272;6.554;2022-07-03T00:44:45;4.10;;;2.40;;
4700;SDS011;8724;51.272;6.554;2022-07-03T00:47:16;2.10;;;1.90;;
4700;SDS011;8724;51.272;6.554;2022-07-03T00:49:46;3.90;;;2.63;;
4700;SDS011;8724;51.272;6.554;2022-07-03T00:52:16;2.40;;;2.20;;
4700;SDS011;8724;51.272;6.554;2022-07-03T00:54:51;2.30;;;2.10;;
4700;SDS011;8724;51.272;6.554;2022-07-03T00:57:21;7.00;;;3.97;;
4700;SDS011;8724;51.272;6.554;2022-07-03T00:59:52;5.93;;;3.90;;
4700;SDS011;8724;51.272;6.554;2022-07-03T01:02:25;8.23;;;5.37;;
4700;SDS011;8724;51.272;6.554;2022-07-03T01:05:02;6.13;;;4.70;;
4700;SDS011;8724;51.272;6.554;2022-07-03T01:07:41;7.13;;;5.33;;
4700;SDS011;8724;51.272;6.554;2022-07-03T01:10:16;7.20;;;5.43;;
4700;SDS011;8724;51.272;6.554;2022-07-03T01:12:59;7.70;;;4.70;;
4700;SDS011;8724;51.272;6.554;2022-07-03T01:15:39;9.33;;;5.30;;
4700;SDS011;8724;51.272;6.554;2022-07-03T01:18:18;7.10;;;4.43;;
4700;SDS011;8724;51.272;6.554;2022-07-03T01:20:57;6.30;;;4.50;;
4700;SDS011;8724;51.272;6.554;2022-07-03T01:23:37;4.53;;;3.30;;
4700;SDS011;8724;51.272;6.554;2022-07-03T01:26:16;2.40;;;2.20;;
4700;SDS011;8724;51.272;6.554;2022-07-03T01:28:46;2.47;;;2.27;;
4700;SDS011;8724;51.272;6.554;2022-07-03T01:31:17;3.10;;;2.63;;
4700;SDS011;8724;51.272;6.554;2022-07-03T01:33:49;2.37;;;2.17;;
4700;SDS011;8724;51.272;6.554;2022-07-03T01:36:18;3.17;;;2.40;;
4700;SDS011;8724;51.272;6.554;2022-07-03T01:38:51;2.57;;;1.87;;
4700;SDS011;8724;51.272;6.554;2022-07-03T01:41:24;3.10;;;1.90;;
4700;SDS011;8724;51.272;6.554;2022-07-03T01:43:57;1.97;;;1.70;;
4700;SDS011;8724;51.272;6.554;2022-07-03T01:46:29;4.10;;;1.80;;
4700;SDS011;8724;51.272;6.554;2022-07-03T01:48:59;4.03;;;2.13;;
4700;SDS011;8724;51.272;6.554;2022-07-03T01:51:27;1.70;;;1.40;;
4700;SDS011;8724;51.272;6.554;2022-07-03T01:53:57;2.83;;;1.90;;
4700;SDS011;8724;51.272;6.554;2022-07-03T01:56:28;2.40;;;2.00;;
4700;SDS011;8724;51.272;6.554;2022-07-03T01:58:59;5.00;;;2.13;;
4700;SDS011;8724;51.272;6.554;2022-07-03T02:01:30;2.13;;;1.90;;
4700;SDS011;8724;51.272;6.554;2022-07-03T02:04:13;2.37;;;1.70;;
4700;SDS011;8724;51.272;6.554;2022-07-03T02:06:51;2.80;;;1.73;;
4700;SDS011;8724;51.272;6.554;2022-07-03T02:09:28;3.10;;;2.07;;
4700;SDS011;8724;51.272;6.554;2022-07-03T02:12:05;2.43;;;1.90;;
4700;SDS011;8724;51.272;6.554;2022-07-03T02:14:39;4.60;;;2.50;;
4700;SDS011;8724;51.272;6.554;2022-07-03T02:17:15;4.07;;;2.73;;
4700;SDS011;8724;51.272;6.554;2022-07-03T02:19:48;4.40;;;1.80;;
4700;SDS011;8724;51.272;6.554;2022-07-03T02:22:23;2.00;;;1.90;;
4700;SDS011;8724;51.272;6.554;2022-07-03T02:24:56;2.70;;;1.83;;
4700;SDS011;8724;51.272;6.554;2022-07-03T02:27:32;2.23;;;1.70;;
4700;SDS011;8724;51.272;6.554;2022-07-03T02:30:10;2.70;;;1.70;;
4700;SDS011;8724;51.272;6.554;2022-07-03T02:32:42;2.13;;;1.93;;
4700;SDS011;8724;51.272;6.554;2022-07-03T02:35:12;2.20;;;1.70;;
4700;SDS011;8724;51.272;6.554;2022-07-03T02:37:45;2.93;;;1.90;;
4700;SDS011;8724;51.272;6.554;2022-07-03T02:40:20;1.53;;;1.43;;
4700;SDS011;8724;51.272;6.554;2022-07-03T02:42:56;3.10;;;2.00;;
4700;SDS011;8724;51.272;6.554;2022-07-03T02:45:39;5.50;;;1.70;;
4700;SDS011;8724;51.272;6.554;2022-07-03T02:48:18;5.30;;;2.30;;
4700;SDS011;8724;51.272;6.554;2022-07-03T02:50:52;2.93;;;2.13;;
4700;SDS011;8724;51.272;6.554;2022-07-03T02:53:28;2.77;;;2.00;;
4700;SDS011;8724;51.272;6.554;2022-07-03T02:56:04;1.80;;;1.60;;
4700;SDS011;8724;51.272;6.554;2022-07-03T02:58:44;3.40;;;2.27;;
4700;SDS011;8724;51.272;6.554;2022-07-03T03:01:24;2.00;;;1.90;;
4700;SDS011;8724;51.272;6.554;2022-07-03T03:04:07;3.63;;;2.40;;
4700;SDS011;8724;51.272;6.554;2022-07-03T03:06:41;2.00;;;1.90;;
4700;SDS011;8724;51.272;6.554;2022-07-03T03:09:19;2.13;;;1.73;;
4700;SDS011;8724;51.272;6.554;2022-07-03T03:11:52;2.17;;;1.50;;
4700;SDS011;8724;51.272;6.554;2022-07-03T03:14:24;2.13;;;1.93;;
4700;SDS011;8724;51.272;6.554;2022-07-03T03:17:03;2.50;;;1.87;;
4700;SDS011;8724;51.272;6.554;2022-07-03T03:19:36;2.00;;;1.90;;
4700;SDS011;8724;51.272;6.554;2022-07-03T03:22:10;1.87;;;1.77;;
4700;SDS011;8724;51.272;6.554;2022-07-03T03:24:48;2.00;;;1.90;;
4700;SDS011;8724;51.272;6.554;2022-07-03T03:27:16;2.77;;;1.80;;
4700;SDS011;8724;51.272;6.554;2022-07-03T03:29:47;3.10;;;2.37;;
4700;SDS011;8724;51.272;6.554;2022-07-03T03:32:16;2.37;;;1.93;;
4700;SDS011;8724;51.272;6.554;2022-07-03T03:34:46;1.80;;;1.60;;
4700;SDS011;8724;51.272;6.554;2022-07-03T03:37:15;8.23;;;2.40;;
4700;SDS011;8724;51.272;6.554;2022-07-03T03:39:43;1.90;;;1.80;;
4700;SDS011;8724;51.272;6.554;2022-07-03T03:42:12;7.80;;;2.40;;
4700;SDS011;8724;51.272;6.554;2022-07-03T03:44:40;3.70;;;1.80;;
4700;SDS011;8724;51.272;6.554;2022-07-03T03:47:10;3.07;;;1.87;;
4700;SDS011;8724;51.272;6.554;2022-07-03T03:49:39;3.77;;;2.40;;
4700;SDS011;8724;51.272;6.554;2022-07-03T03:52:07;6.80;;;2.00;;
4700;SDS011;8724;51.272;6.554;2022-07-03T03:54:36;6.47;;;2.70;;
4700;SDS011;8724;51.272;6.554;2022-07-03T03:57:17;9.63;;;2.53;;
4700;SDS011;8724;51.272;6.554;2022-07-03T03:59:47;5.30;;;2.23;;
4700;SDS011;8724;51.272;6.554;2022-07-03T04:02:17;8.57;;;2.90;;
4700;SDS011;8724;51.272;6.554;2022-07-03T04:04:46;3.57;;;1.83;;
4700;SDS011;8724;51.272;6.554;2022-07-03T04:07:15;3.60;;;2.00;;
4700;SDS011;8724;51.272;6.554;2022-07-03T04:09:43;3.00;;;1.77;;
4700;SDS011;8724;51.272;6.554;2022-07-03T04:12:12;4.97;;;2.07;;
4700;SDS011;8724;51.272;6.554;2022-07-03T04:14:40;3.73;;;1.87;;
4700;SDS011;8724;51.272;6.554;2022-07-03T04:17:09;2.50;;;1.80;;
4700;SDS011;8724;51.272;6.554;2022-07-03T04:19:39;3.50;;;2.53;;
4700;SDS011;8724;51.272;6.554;2022-07-03T04:22:07;35.37;;;25.60;;
4700;SDS011;8724;51.272;6.554;2022-07-03T04:24:36;30.47;;;23.57;;
4700;SDS011;8724;51.272;6.554;2022-07-03T04:27:05;34.77;;;24.93;;
4700;SDS011;8724;51.272;6.554;2022-07-03T04:29:33;16.90;;;13.40;;
4700;SDS011;8724;51.272;6.554;2022-07-03T04:32:04;8.23;;;6.53;;
4700;SDS011;8724;51.272;6.554;2022-07-03T04:34:33;5.33;;;4.17;;
4700;SDS011;8724;51.272;6.554;2022-07-03T04:37:04;4.03;;;2.97;;
4700;SDS011;8724;51.272;6.554;2022-07-03T04:39:32;5.80;;;2.50;;
4700;SDS011;8724;51.272;6.554;2022-07-03T04:42:03;3.47;;;2.00;;
4700;SDS011;8724;51.272;6.554;2022-07-03T04:44:32;3.10;;;2.00;;
4700;SDS011;8724;51.272;6.554;2022-07-03T04:47:00;2.93;;;1.70;;
4700;SDS011;8724;51.272;6.554;2022-07-03T04:49:28;2.50;;;1.57;;
4700;SDS011;8724;51.272;6.554;2022-07-03T04:51:57;3.63;;;1.90;;
4700;SDS011;8724;51.272;6.554;2022-07-03T04:54:26;4.20;;;1.77;;
4700;SDS011;8724;51.272;6.554;2022-07-03T04:56:55;4.10;;;1.77;;
4700;SDS011;8724;51.272;6.554;2022-07-03T04:59:23;2.00;;;1.87;;
4700;SDS011;8724;51.272;6.554;2022-07-03T05:01:52;2.00;;;1.87;;
4700;SDS011;8724;51.272;6.554;2022-07-03T05:04:20;2.17;;;1.87;;
4700;SDS011;8724;51.272;6.554;2022-07-03T05:06:49;2.90;;;2.47;;
4700;SDS011;8724;51.272;6.554;2022-07-03T05:09:17;5.60;;;2.67;;
4700;SDS011;8724;51.272;6.554;2022-07-03T05:11:47;18.67;;;14.00;;
4700;SDS011;8724;51.272;6.554;2022-07-03T05:14:16;17.90;;;15.90;;
4700;SDS011;8724;51.272;6.554;2022-07-03T05:16:45;8.57;;;7.30;;
4700;SDS011;8724;51.272;6.554;2022-07-03T05:19:13;5.20;;;4.27;;
4700;SDS011;8724;51.272;6.554;2022-07-03T05:21:41;5.10;;;4.10;;
4700;SDS011;8724;51.272;6.554;2022-07-03T05:24:10;3.70;;;2.90;;
4700;SDS011;8724;51.272;6.554;2022-07-03T05:26:38;6.77;;;3.73;;
4700;SDS011;8724;51.272;6.554;2022-07-03T05:29:08;7.80;;;3.30;;
4700;SDS011;8724;51.272;6.554;2022-07-03T05:31:36;6.30;;;3.90;;
4700;SDS011;8724;51.272;6.554;2022-07-03T05:34:05;5.57;;;4.00;;
4700;SDS011;8724;51.272;6.554;2022-07-03T05:36:34;5.00;;;4.10;;
4700;SDS011;8724;51.272;6.554;2022-07-03T05:39:04;3.70;;;3.33;;
4700;SDS011;8724;51.272;6.554;2022-07-03T05:41:49;3.30;;;3.00;;
4700;SDS011;8724;51.272;6.554;2022-07-03T05:44:19;4.83;;;4.00;;
4700;SDS011;8724;51.272;6.554;2022-07-03T05:46:47;2.83;;;2.63;;
4700;SDS011;8724;51.272;6.554;2022-07-03T05:49:16;9.40;;;6.60;;
4700;SDS011;8724;51.272;6.554;2022-07-03T05:51:45;6.13;;;4.30;;
4700;SDS011;8724;51.272;6.554;2022-07-03T05:54:13;7.53;;;3.90;;
4700;SDS011;8724;51.272;6.554;2022-07-03T05:56:42;13.40;;;10.30;;
4700;SDS011;8724;51.272;6.554;2022-07-03T05:59:10;18.43;;;15.47;;
4700;SDS011;8724;51.272;6.554;2022-07-03T06:01:40;10.33;;;7.07;;
4700;SDS011;8724;51.272;6.554;2022-07-03T06:04:08;5.77;;;5.20;;
4700;SDS011;8724;51.272;6.554;2022-07-03T06:06:37;5.40;;;3.90;;
4700;SDS011;8724;51.272;6.554;2022-07-03T06:09:05;4.57;;;3.30;;
4700;SDS011;8724;51.272;6.554;2022-07-03T06:11:36;9.17;;;4.03;;
4700;SDS011;8724;51.272;6.554;2022-07-03T06:14:04;5.10;;;4.20;;
4700;SDS011;8724;51.272;6.554;2022-07-03T06:16:33;5.10;;;3.90;;
4700;SDS011;8724;51.272;6.554;2022-07-03T06:19:03;3.83;;;3.03;;
4700;SDS011;8724;51.272;6.554;2022-07-03T06:21:31;3.77;;;3.10;;
4700;SDS011;8724;51.272;6.554;2022-07-03T06:23:59;4.70;;;3.80;;
4700;SDS011;8724;51.272;6.554;2022-07-03T06:26:28;3.13;;;2.87;;
4700;SDS011;8724;51.272;6.554;2022-07-03T06:28:56;2.67;;;2.53;;
4700;SDS011;8724;51.272;6.554;2022-07-03T06:31:24;3.93;;;3.20;;
4700;SDS011;8724;51.272;6.554;2022-07-03T06:33:53;2.60;;;2.40;;
4700;SDS011;8724;51.272;6.554;2022-07-03T06:36:23;5.90;;;3.67;;
4700;SDS011;8724;51.272;6.554;2022-07-03T06:38:51;3.17;;;2.87;;
4700;SDS011;8724;51.272;6.554;2022-07-03T06:41:19;3.97;;;2.80;;
4700;SDS011;8724;51.272;6.554;2022-07-03T06:43:48;7.00;;;2.80;;
4700;SDS011;8724;51.272;6.554;2022-07-03T06:46:16;3.13;;;2.50;;
4700;SDS011;8724;51.272;6.554;2022-07-03T06:48:44;20.87;;;17.50;;
4700;SDS011;8724;51.272;6.554;2022-07-03T06:51:13;40.43;;;32.83;;
4700;SDS011;8724;51.272;6.554;2022-07-03T06:53:44;19.83;;;17.47;;
4700;SDS011;8724;51.272;6.554;2022-07-03T06:56:12;14.57;;;11.97;;
4700;SDS011;8724;51.272;6.554;2022-07-03T06:58:41;7.23;;;6.53;;
4700;SDS011;8724;51.272;6.554;2022-07-03T07:01:10;5.20;;;4.70;;
4700;SDS011;8724;51.272;6.554;2022-07-03T07:03:38;4.80;;;4.30;;
4700;SDS011;8724;51.272;6.554;2022-07-03T07:06:09;4.27;;;3.00;;
4700;SDS011;8724;51.272;6.554;2022-07-03T07:08:37;2.80;;;2.40;;
4700;SDS011;8724;51.272;6.554;2022-07-03T07:11:07;5.83;;;2.83;;
4700;SDS011;8724;51.272;6.554;2022-07-03T07:13:35;4.90;;;2.60;;
4700;SDS011;8724;51.272;6.554;2022-07-03T07:16:04;2.93;;;2.17;;
4700;SDS011;8724;51.272;6.554;2022-07-03T07:18:33;2.57;;;1.70;;
4700;SDS011;8724;51.272;6.554;2022-07-03T07:21:01;2.07;;;1.73;;
4700;SDS011;8724;51.272;6.554;2022-07-03T07:23:30;1.87;;;1.77;;
4700;SDS011;8724;51.272;6.554;2022-07-03T07:25:58;8.00;;;5.70;;
4700;SDS011;8724;51.272;6.554;2022-07-03T07:28:28;17.30;;;14.70;;
4700;SDS011;8724;51.272;6.554;2022-07-03T07:30:57;17.10;;;14.03;;
4700;SDS011;8724;51.272;6.554;2022-07-03T07:33:25;11.00;;;9.80;;
4700;SDS011;8724;51.272;6.554;2022-07-03T07:35:53;9.47;;;8.40;;
4700;SDS011;8724;51.272;6.554;2022-07-03T07:38:22;7.67;;;6.90;;
4700;SDS011;8724;51.272;6.554;2022-07-03T07:40:50;3.70;;;3.00;;
4700;SDS011;8724;51.272;6.554;2022-07-03T07:43:18;3.30;;;3.00;;
4700;SDS011;8724;51.272;6.554;2022-07-03T07:45:48;3.50;;;2.93;;
4700;SDS011;8724;51.272;6.554;2022-07-03T07:48:17;4.73;;;2.63;;
4700;SDS011;8724;51.272;6.554;2022-07-03T07:50:45;2.60;;;2.40;;
4700;SDS011;8724;51.272;6.554;2022-07-03T07:53:16;2.33;;;1.90;;
4700;SDS011;8724;51.272;6.554;2022-07-03T07:55:44;2.43;;;1.97;;
4700;SDS011;8724;51.272;6.554;2022-07-03T07:58:12;1.80;;;1.70;;
4700;SDS011;8724;51.272;6.554;2022-07-03T08:00:41;3.40;;;2.53;;
4700;SDS011;8724;51.272;6.554;2022-07-03T08:03:31;2.20;;;2.00;;
4700;SDS011;8724;51.272;6.554;2022-07-03T08:06:16;2.13;;;1.77;;
4700;SDS011;8724;51.272;6.554;2022-07-03T08:08:45;1.83;;;1.73;;
4700;SDS011;8724;51.272;6.554;2022-07-03T08:11:14;2.43;;;1.53;;
4700;SDS011;8724;51.272;6.554;2022-07-03T08:13:42;2.00;;;1.57;;
4700;SDS011;8724;51.272;6.554;2022-07-03T08:16:12;3.03;;;1.77;;
4700;SDS011;8724;51.272;6.554;2022-07-03T08:18:42;12.67;;;9.83;;
4700;SDS011;8724;51.272;6.554;2022-07-03T08:21:10;35.80;;;30.00;;
4700;SDS011;8724;51.272;6.554;2022-07-03T08:23:39;26.33;;;22.10;;
4700;SDS011;8724;51.272;6.554;2022-07-03T08:26:07;15.00;;;12.50;;
4700;SDS011;8724;51.272;6.554;2022-07-03T08:28:35;13.30;;;8.73;;
4700;SDS011;8724;51.272;6.554;2022-07-03T08:31:04;7.33;;;5.20;;
4700;SDS011;8724;51.272;6.554;2022-07-03T08:33:32;2.77;;;2.57;;
4700;SDS011;8724;51.272;6.554;2022-07-03T08:36:05;3.20;;;2.67;;
4700;SDS011;8724;51.272;6.554;2022-07-03T08:38:34;2.03;;;1.83;;
4700;SDS011;8724;51.272;6.554;2022-07-03T08:41:03;2.60;;;2.03;;
4700;SDS011;8724;51.272;6.554;2022-07-03T08:43:32;1.67;;;1.50;;
4700;SDS011;8724;51.272;6.554;2022-07-03T08:46:02;2.47;;;2.07;;
4700;SDS011;8724;51.272;6.554;2022-07-03T08:48:31;4.70;;;2.47;;
4700;SDS011;8724;51.272;6.554;2022-07-03T08:51:01;3.40;;;1.93;;
4700;SDS011;8724;51.272;6.554;2022-07-03T08:53:31;4.60;;;1.80;;
4700;SDS011;8724;51.272;6.554;2022-07-03T08:56:00;2.73;;;1.80;;
4700;SDS011;8724;51.272;6.554;2022-07-03T08:58:30;5.17;;;2.97;;
4700;SDS011;8724;51.272;6.554;2022-07-03T09:00:58;70.47;;;51.50;;
4700;SDS011;8724;51.272;6.554;2022-07-03T09:03:28;63.70;;;50.77;;
4700;SDS011;8724;51.272;6.554;2022-07-03T09:05:58;28.40;;;22.70;;
4700;SDS011;8724;51.272;6.554;2022-07-03T09:08:28;13.50;;;12.10;;
4700;SDS011;8724;51.272;6.554;2022-07-03T09:11:00;13.00;;;8.57;;
4700;SDS011;8724;51.272;6.554;2022-07-03T09:13:29;7.27;;;6.40;;
4700;SDS011;8724;51.272;6.554;2022-07-03T09:15:57;33.77;;;27.83;;
4700;SDS011;8724;51.272;6.554;2022-07-03T09:18:38;36.63;;;32.53;;
4700;SDS011;8724;51.272;6.554;2022-07-03T09:21:08;14.93;;;11.30;;
4700;SDS011;8724;51.272;6.554;2022-07-03T09:23:36;7.60;;;6.20;;
4700;SDS011;8724;51.272;6.554;2022-07-03T09:26:11;5.63;;;4.73;;
4700;SDS011;8724;51.272;6.554;2022-07-03T09:28:41;4.93;;;3.93;;
4700;SDS011;8724;51.272;6.554;2022-07-03T09:31:15;3.20;;;2.37;;
4700;SDS011;8724;51.272;6.554;2022-07-03T09:33:51;2.60;;;2.30;;
4700;SDS011;8724;51.272;6.554;2022-07-03T09:36:22;2.70;;;2.00;;
4700;SDS011;8724;51.272;6.554;2022-07-03T09:39:10;2.80;;;2.10;;
4700;SDS011;8724;51.272;6.554;2022-07-03T09:41:51;2.50;;;1.90;;
4700;SDS011;8724;51.272;6.554;2022-07-03T09:44:30;3.37;;;2.43;;
4700;SDS011;8724;51.272;6.554;2022-07-03T09:47:11;2.80;;;1.60;;
4700;SDS011;8724;51.272;6.554;2022-07-03T09:49:44;2.20;;;2.00;;
4700;SDS011;8724;51.272;6.554;2022-07-03T09:52:27;2.20;;;1.80;;
4700;SDS011;8724;51.272;6.554;2022-07-03T09:54:58;1.63;;;1.47;;
4700;SDS011;8724;51.272;6.554;2022-07-03T09:57:30;3.80;;;1.40;;
4700;SDS011;8724;51.272;6.554;2022-07-03T10:00:08;1.63;;;1.53;;
4700;SDS011;8724;51.272;6.554;2022-07-03T10:02:53;3.50;;;2.10;;
4700;SDS011;8724;51.272;6.554;2022-07-03T10:05:24;2.70;;;1.80;;
4700;SDS011;8724;51.272;6.554;2022-07-03T10:07:55;1.70;;;1.60;;
4700;SDS011;8724;51.272;6.554;2022-07-03T10:10:26;30.77;;;26.47;;
4700;SDS011;8724;51.272;6.554;2022-07-03T10:12:57;56.93;;;46.77;;
4700;SDS011;8724;51.272;6.554;2022-07-03T10:15:27;36.73;;;29.70;;
4700;SDS011;8724;51.272;6.554;2022-07-03T10:17:57;20.23;;;16.23;;
4700;SDS011;8724;51.272;6.554;2022-07-03T10:20:27;7.83;;;6.63;;
4700;SDS011;8724;51.272;6.554;2022-07-03T10:22:56;6.90;;;4.63;;
4700;SDS011;8724;51.272;6.554;2022-07-03T10:25:25;8.20;;;3.20;;
4700;SDS011;8724;51.272;6.554;2022-07-03T10:27:54;4.90;;;2.20;;
4700;SDS011;8724;51.272;6.554;2022-07-03T10:30:24;2.10;;;1.70;;
4700;SDS011;8724;51.272;6.554;2022-07-03T10:32:54;1.93;;;1.73;;
4700;SDS011;8724;51.272;6.554;2022-07-03T10:35:24;3.50;;;1.80;;
4700;SDS011;8724;51.272;6.554;2022-07-03T10:37:57;4.83;;;1.90;;
4700;SDS011;8724;51.272;6.554;2022-07-03T10:40:37;3.57;;;2.20;;
4700;SDS011;8724;51.272;6.554;2022-07-03T10:43:29;1.73;;;1.47;;
4700;SDS011;8724;51.272;6.554;2022-07-03T10:46:21;1.70;;;1.60;;
4700;SDS011;8724;51.272;6.554;2022-07-03T10:48:51;2.10;;;1.50;;
4700;SDS011;8724;51.272;6.554;2022-07-03T10:51:23;2.97;;;1.90;;
4700;SDS011;8724;51.272;6.554;2022-07-03T11:02:26;60.77;;;52.13;;
4700;SDS011;8724;51.272;6.554;2022-07-03T11:05:03;58.30;;;47.77;;
4700;SDS011;8724;51.272;6.554;2022-07-03T11:07:39;32.30;;;28.40;;
4700;SDS011;8724;51.272;6.554;2022-07-03T11:10:28;12.07;;;10.80;;
4700;SDS011;8724;51.272;6.554;2022-07-03T11:12:58;13.70;;;8.43;;
4700;SDS011;8724;51.272;6.554;2022-07-03T11:15:28;4.93;;;3.33;;
4700;SDS011;8724;51.272;6.554;2022-07-03T11:20:55;10.30;;;6.70;;
4700;SDS011;8724;51.272;6.554;2022-07-03T11:23:48;19.50;;;12.30;;
4700;SDS011;8724;51.272;6.554;2022-07-03T11:26:41;8.47;;;6.70;;
4700;SDS011;8724;51.272;6.554;2022-07-03T11:29:24;5.47;;;3.47;;
4700;SDS011;8724;51.272;6.554;2022-07-03T11:31:54;2.30;;;2.10;;
4700;SDS011;8724;51.272;6.554;2022-07-03T11:34:24;2.17;;;1.97;;
4700;SDS011;8724;51.272;6.554;2022-07-03T11:36:52;1.90;;;1.70;;
4700;SDS011;8724;51.272;6.554;2022-07-03T11:39:21;4.20;;;1.57;;
4700;SDS011;8724;51.272;6.554;2022-07-03T11:41:50;8.37;;;1.73;;
4700;SDS011;8724;51.272;6.554;2022-07-03T11:44:19;2.40;;;1.50;;
4700;SDS011;8724;51.272;6.554;2022-07-03T11:46:49;1.07;;;1.00;;
4700;SDS011;8724;51.272;6.554;2022-07-03T11:49:20;1.87;;;1.43;;
4700;SDS011;8724;51.272;6.554;2022-07-03T11:51:59;1.53;;;1.43;;
4700;SDS011;8724;51.272;6.554;2022-07-03T11:54:30;1.90;;;1.20;;
4700;SDS011;8724;51.272;6.554;2022-07-03T11:56:59;2.63;;;1.30;;
4700;SDS011;8724;51.272;6.554;2022-07-03T11:59:28;2.30;;;1.00;;
4700;SDS011;8724;51.272;6.554;2022-07-03T12:02:00;1.43;;;1.33;;
4700;SDS011;8724;51.272;6.554;2022-07-03T12:04:30;2.70;;;1.40;;
4700;SDS011;8724;51.272;6.554;2022-07-03T12:07:00;2.90;;;2.70;;
4700;SDS011;8724;51.272;6.554;2022-07-03T12:09:29;9.40;;;8.40;;
4700;SDS011;8724;51.272;6.554;2022-07-03T12:12:01;5.10;;;4.50;;
4700;SDS011;8724;51.272;6.554;2022-07-03T12:14:37;4.83;;;3.20;;
4700;SDS011;8724;51.272;6.554;2022-07-03T12:17:08;4.03;;;2.50;;
4700;SDS011;8724;51.272;6.554;2022-07-03T12:19:43;1.93;;;1.80;;
4700;SDS011;8724;51.272;6.554;2022-07-03T12:22:13;1.20;;;1.10;;
4700;SDS011;8724;51.272;6.554;2022-07-03T12:24:59;2.90;;;1.10;;
4700;SDS011;8724;51.272;6.554;2022-07-03T12:27:29;1.50;;;1.10;;
4700;SDS011;8724;51.272;6.554;2022-07-03T12:29:58;2.20;;;0.83;;
4700;SDS011;8724;51.272;6.554;2022-07-03T12:32:27;0.80;;;0.80;;
4700;SDS011;8724;51.272;6.554;2022-07-03T12:34:56;1.50;;;1.27;;
4700;SDS011;8724;51.272;6.554;2022-07-03T12:37:32;1.93;;;1.10;;
4700;SDS011;8724;51.272;6.554;2022-07-03T12:40:02;0.90;;;0.90;;
4700;SDS011;8724;51.272;6.554;2022-07-03T12:42:31;2.77;;;1.00;;
4700;SDS011;8724;51.272;6.554;2022-07-03T12:45:11;2.63;;;1.03;;
4700;SDS011;8724;51.272;6.554;2022-07-03T12:47:43;1.50;;;1.13;;
4700;SDS011;8724;51.272;6.554;2022-07-03T12:50:12;1.30;;;1.20;;
4700;SDS011;8724;51.272;6.554;2022-07-03T12:52:53;2.73;;;1.20;;
4700;SDS011;8724;51.272;6.554;2022-07-03T12:55:25;1.73;;;1.20;;
4700;SDS011;8724;51.272;6.554;2022-07-03T12:58:11;1.10;;;1.00;;
4700;SDS011;8724;51.272;6.554;2022-07-03T13:00:57;1.53;;;1.03;;
4700;SDS011;8724;51.272;6.554;2022-07-03T13:03:26;1.00;;;0.90;;
4700;SDS011;8724;51.272;6.554;2022-07-03T13:06:15;1.60;;;1.20;;
4700;SDS011;8724;51.272;6.554;2022-07-03T13:08:55;1.40;;;1.30;;
4700;SDS011;8724;51.272;6.554;2022-07-03T13:11:25;0.97;;;0.87;;
4700;SDS011;8724;51.272;6.554;2022-07-03T13:14:00;1.23;;;0.80;;
4700;SDS011;8724;51.272;6.554;2022-07-03T13:16:39;1.60;;;1.10;;
4700;SDS011;8724;51.272;6.554;2022-07-03T13:19:09;1.60;;;1.10;;
4700;SDS011;8724;51.272;6.554;2022-07-03T13:21:39;0.80;;;0.80;;
4700;SDS011;8724;51.272;6.554;2022-07-03T13:24:11;2.13;;;0.90;;
4700;SDS011;8724;51.272;6.554;2022-07-03T13:26:40;1.07;;;0.97;;
4700;SDS011;8724;51.272;6.554;2022-07-03T13:29:14;2.17;;;0.90;;
4700;SDS011;8724;51.272;6.554;2022-07-03T13:31:43;0.90;;;0.90;;
4700;SDS011;8724;51.272;6.554;2022-07-03T13:34:13;1.37;;;1.00;;
4700;SDS011;8724;51.272;6.554;2022-07-03T13:36:41;0.97;;;0.87;;
4700;SDS011;8724;51.272;6.554;2022-07-03T13:39:11;1.57;;;1.10;;
4700;SDS011;8724;51.272;6.554;2022-07-03T13:41:39;3.50;;;1.10;;
4700;SDS011;8724;51.272;6.554;2022-07-03T13:44:08;1.83;;;0.90;;
4700;SDS011;8724;51.272;6.554;2022-07-03T13:46:36;2.13;;;0.90;;
4700;SDS011;8724;51.272;6.554;2022-07-03T13:49:04;1.13;;;1.03;;
4700;SDS011;8724;51.272;6.554;2022-07-03T13:51:33;2.60;;;1.00;;
4700;SDS011;8724;51.272;6.554;2022-07-03T13:54:01;1.83;;;0.90;;
4700;SDS011;8724;51.272;6.554;2022-07-03T13:56:31;2.30;;;1.07;;
4700;SDS011;8724;51.272;6.554;2022-07-03T13:58:59;1.47;;;1.10;;
4700;SDS011;8724;51.272;6.554;2022-07-03T14:01:28;2.40;;;1.20;;
4700;SDS011;8724;51.272;6.554;2022-07-03T14:03:57;2.20;;;1.43;;
4700;SDS011;8724;51.272;6.554;2022-07-03T14:06:25;1.70;;;1.03;;
4700;SDS011;8724;51.272;6.554;2022-07-03T14:08:53;4.13;;;3.80;;
4700;SDS011;8724;51.272;6.554;2022-07-03T14:11:24;27.80;;;19.27;;
4700;SDS011;8724;51.272;6.554;2022-07-03T14:13:54;9.90;;;7.40;;
4700;SDS011;8724;51.272;6.554;2022-07-03T14:16:22;3.07;;;2.73;;
4700;SDS011;8724;51.272;6.554;2022-07-03T14:18:51;2.70;;;1.80;;
4700;SDS011;8724;51.272;6.554;2022-07-03T14:21:19;1.10;;;1.00;;
4700;SDS011;8724;51.272;6.554;2022-07-03T14:23:47;0.90;;;0.80;;
4700;SDS011;8724;51.272;6.554;2022-07-03T14:26:16;1.47;;;1.20;;
4700;SDS011;8724;51.272;6.554;2022-07-03T14:29:06;3.63;;;1.60;;
4700;SDS011;8724;51.272;6.554;2022-07-03T14:31:52;1.13;;;0.87;;
4700;SDS011;8724;51.272;6.554;2022-07-03T14:34:38;1.00;;;0.90;;
4700;SDS011;8724;51.272;6.554;2022-07-03T14:37:07;1.00;;;1.00;;
4700;SDS011;8724;51.272;6.554;2022-07-03T14:39:36;1.20;;;1.10;;
4700;SDS011;8724;51.272;6.554;2022-07-03T14:42:05;2.90;;;1.10;;
4700;SDS011;8724;51.272;6.554;2022-07-03T14:44:35;1.93;;;0.80;;
4700;SDS011;8724;51.272;6.554;2022-07-03T14:47:03;1.43;;;1.33;;
4700;SDS011;8724;51.272;6.554;2022-07-03T14:49:32;1.07;;;0.90;;
4700;SDS011;8724;51.272;6.554;2022-07-03T14:52:01;0.83;;;0.70;;
4700;SDS011;8724;51.272;6.554;2022-07-03T14:54:31;1.33;;;1.10;;
4700;SDS011;8724;51.272;6.554;2022-07-03T14:57:01;0.90;;;0.80;;
4700;SDS011;8724;51.272;6.554;2022-07-03T14:59:37;1.33;;;1.20;;
4700;SDS011;8724;51.272;6.554;2022-07-03T15:02:16;0.87;;;0.80;;
4700;SDS011;8724;51.272;6.554;2022-07-03T15:04:53;1.00;;;0.90;;
4700;SDS011;8724;51.272;6.554;2022-07-03T15:07:32;1.00;;;0.90;;
4700;SDS011;8724;51.272;6.554;2022-07-03T15:10:05;1.57;;;1.10;;
4700;SDS011;8724;51.272;6.554;2022-07-03T15:12:38;1.63;;;1.10;;
4700;SDS011;8724;51.272;6.554;2022-07-03T15:15:11;2.80;;;1.20;;
4700;SDS011;8724;51.272;6.554;2022-07-03T15:17:42;1.23;;;0.90;;
4700;SDS011;8724;51.272;6.554;2022-07-03T15:20:11;1.30;;;0.97;;
4700;SDS011;8724;51.272;6.554;2022-07-03T15:22:42;1.73;;;1.00;;
4700;SDS011;8724;51.272;6.554;2022-07-03T15:25:12;2.80;;;2.10;;
4700;SDS011;8724;51.272;6.554;2022-07-03T15:27:41;6.00;;;1.43;;
4700;SDS011;8724;51.272;6.554;2022-07-03T15:30:11;1.90;;;0.90;;
4700;SDS011;8724;51.272;6.554;2022-07-03T15:32:40;1.53;;;0.93;;
4700;SDS011;8724;51.272;6.554;2022-07-03T15:35:14;3.33;;;1.10;;
4700;SDS011;8724;51.272;6.554;2022-07-03T15:37:49;1.83;;;1.50;;
4700;SDS011;8724;51.272;6.554;2022-07-03T15:40:45;1.50;;;1.20;;
4700;SDS011;8724;51.272;6.554;2022-07-03T15:43:22;2.00;;;1.10;;
4700;SDS011;8724;51.272;6.554;2022-07-03T15:46:05;1.50;;;0.97;;
4700;SDS011;8724;51.272;6.554;2022-07-03T15:48:47;1.07;;;0.90;;
4700;SDS011;8724;51.272;6.554;2022-07-03T15:51:21;1.53;;;0.77;;
4700;SDS011;8724;51.272;6.554;2022-07-03T15:54:00;2.70;;;1.00;;